Terminal Aerodrome Forecast
Issued by NWS Sioux Falls, SD

Home | Current Version | Previous Version | Text Only | Print | Product List | Glossary On
Versions: 1 2 3 4 5 6 7 8 9 10 11 12 13 14
966
FTUS43 KFSD 231120
TAFHON
TAF
KHON 231120Z 2312/2412 33010KT P6SM SCT015 OVC035
      TEMPO 2312/2314 BKN017
     FM231400 34012KT P6SM BKN020
     FM231600 34015G23KT P6SM VCSH OVC012
     FM231900 35016G24KT P6SM VCSH OVC025
     FM232100 35016G24KT P6SM OVC040
     FM240200 35009KT P6SM BKN050
     FM240700 34005KT P6SM SCT060=

USA.gov is the U.S. government's official web portal to all federal, state and local government web resources and services.